createdAt,value
2023-05-21T00:00:35.323Z,100.00
2023-05-21T00:03:02.548Z,100.00
2023-05-21T00:05:30.343Z,100.00
2023-05-21T00:07:57.493Z,100.00
2023-05-21T00:10:24.540Z,100.00
2023-05-21T00:12:52.099Z,100.00
2023-05-21T00:15:19.160Z,100.00
2023-05-21T00:17:46.438Z,100.00
2023-05-21T00:20:13.676Z,100.00
2023-05-21T00:22:42.750Z,100.00
2023-05-21T00:25:11.225Z,100.00
2023-05-21T00:27:38.407Z,100.00
2023-05-21T00:30:07.061Z,100.00
2023-05-21T00:32:34.191Z,100.00
2023-05-21T00:35:01.402Z,100.00
2023-05-21T00:37:33.103Z,100.00
2023-05-21T00:40:05.724Z,100.00
2023-05-21T00:42:32.736Z,100.00
2023-05-21T00:45:00.230Z,100.00
2023-05-21T00:47:29.945Z,100.00
2023-05-21T00:49:57.166Z,100.00
2023-05-21T00:52:27.265Z,100.00
2023-05-21T00:54:54.518Z,100.00
2023-05-21T00:57:23.102Z,100.00
2023-05-21T00:59:51.850Z,100.00
2023-05-21T01:02:19.078Z,100.00
2023-05-21T01:04:46.287Z,100.00
2023-05-21T01:07:14.776Z,100.00
2023-05-21T01:09:42.224Z,100.00
2023-05-21T01:12:09.475Z,100.00
2023-05-21T01:14:37.748Z,100.00
2023-05-21T01:17:06.514Z,100.00
2023-05-21T01:19:35.695Z,100.00
2023-05-21T01:22:08.331Z,100.00
2023-05-21T01:24:35.775Z,100.00
2023-05-21T01:27:03.851Z,100.00
2023-05-21T01:29:30.995Z,100.00
2023-05-21T01:32:13.631Z,100.00
2023-05-21T01:34:47.083Z,100.00
2023-05-21T01:37:26.023Z,100.00
2023-05-21T01:39:59.725Z,100.00
2023-05-21T01:42:27.014Z,100.00
2023-05-21T01:44:55.870Z,100.00
2023-05-21T01:47:23.977Z,100.00
2023-05-21T01:49:52.636Z,100.00
2023-05-21T01:52:19.670Z,100.00
2023-05-21T01:54:47.639Z,100.00
2023-05-21T01:57:14.684Z,100.00
2023-05-21T01:59:41.733Z,100.00
2023-05-21T02:02:08.991Z,100.00
2023-05-21T02:04:36.233Z,100.00
2023-05-21T02:07:03.117Z,100.00
2023-05-21T02:09:30.535Z,100.00
2023-05-21T02:11:58.500Z,100.00
2023-05-21T02:14:25.655Z,100.00
2023-05-21T02:16:52.676Z,100.00
2023-05-21T02:19:19.681Z,100.00
2023-05-21T02:21:46.996Z,100.00
2023-05-21T02:24:14.364Z,100.00
2023-05-21T02:26:42.322Z,100.00
2023-05-21T02:29:09.467Z,100.00
2023-05-21T02:31:37.237Z,100.00
2023-05-21T02:34:04.961Z,100.00
2023-05-21T02:36:33.500Z,100.00
2023-05-21T02:39:01.832Z,100.00
2023-05-21T02:41:29.409Z,100.00
2023-05-21T02:43:56.565Z,100.00
2023-05-21T02:46:23.701Z,100.00
2023-05-21T02:48:52.144Z,100.00
2023-05-21T02:51:19.648Z,100.00
2023-05-21T02:53:46.640Z,100.00
2023-05-21T02:56:14.251Z,100.00
2023-05-21T02:58:41.953Z,100.00
2023-05-21T03:01:09.121Z,100.00
2023-05-21T03:03:36.553Z,100.00
2023-05-21T03:06:04.601Z,100.00
2023-05-21T03:08:32.262Z,100.00
2023-05-21T03:11:00.167Z,100.00
2023-05-21T03:13:27.300Z,100.00
2023-05-21T03:15:57.805Z,100.00
2023-05-21T03:18:25.608Z,100.00
2023-05-21T03:20:52.705Z,100.00
2023-05-21T03:23:20.776Z,100.00
2023-05-21T03:25:48.644Z,100.00
2023-05-21T03:28:17.709Z,100.00
2023-05-21T03:30:50.022Z,100.00
2023-05-21T03:33:35.187Z,100.00
2023-05-21T03:36:08.782Z,100.00
2023-05-21T03:38:37.191Z,100.00
2023-05-21T03:41:05.664Z,100.00
2023-05-21T03:43:32.813Z,100.00
2023-05-21T03:46:01.020Z,100.00
2023-05-21T03:48:40.198Z,100.00
2023-05-21T03:51:08.063Z,100.00
2023-05-21T03:53:35.658Z,100.00
2023-05-21T03:56:03.172Z,100.00
2023-05-21T03:58:30.983Z,100.00
2023-05-21T04:00:59.168Z,100.00
2023-05-21T04:03:26.718Z,100.00
2023-05-21T04:05:54.740Z,100.00
2023-05-21T04:08:23.017Z,100.00
2023-05-21T04:10:49.956Z,100.00
2023-05-21T04:13:17.621Z,100.00
2023-05-21T04:15:46.969Z,100.00
2023-05-21T04:18:16.615Z,100.00
2023-05-21T04:20:44.097Z,100.00
2023-05-21T04:23:12.109Z,100.00
2023-05-21T04:25:39.322Z,100.00
2023-05-21T04:28:06.559Z,100.00
2023-05-21T04:30:37.909Z,100.00
2023-05-21T04:33:05.107Z,100.00
2023-05-21T04:35:36.233Z,100.00
2023-05-21T04:38:06.012Z,100.00
2023-05-21T04:40:33.054Z,100.00
2023-05-21T04:43:04.914Z,100.00
2023-05-21T04:45:33.006Z,100.00
2023-05-21T04:48:00.754Z,100.00
2023-05-21T04:50:30.952Z,100.00
2023-05-21T04:52:59.732Z,100.00
2023-05-21T04:55:27.726Z,100.00
2023-05-21T04:57:54.872Z,100.00
2023-05-21T05:00:22.852Z,100.00
2023-05-21T05:02:50.079Z,100.00
2023-05-21T05:05:17.119Z,100.00
2023-05-21T05:07:44.053Z,100.00
2023-05-21T05:10:11.147Z,100.00
2023-05-21T05:12:38.179Z,100.00
2023-05-21T05:15:06.047Z,100.00
2023-05-21T05:17:34.538Z,100.00
2023-05-21T05:20:01.662Z,100.00
2023-05-21T05:22:29.370Z,100.00
2023-05-21T05:24:56.957Z,100.00
2023-05-21T05:27:24.349Z,100.00
2023-05-21T05:29:51.804Z,100.00
2023-05-21T05:32:18.992Z,100.00
2023-05-21T05:34:46.864Z,100.00
2023-05-21T05:37:14.053Z,100.00
2023-05-21T05:39:41.254Z,100.00
2023-05-21T05:42:08.631Z,100.00
2023-05-21T05:44:35.749Z,100.00
2023-05-21T05:47:02.876Z,100.00
2023-05-21T05:49:29.920Z,100.00
2023-05-21T05:51:57.088Z,100.00
2023-05-21T05:54:24.669Z,100.00
2023-05-21T05:56:52.287Z,100.00
2023-05-21T05:59:19.364Z,100.00
2023-05-21T06:01:48.230Z,100.00
2023-05-21T06:04:16.529Z,100.00
2023-05-21T06:06:43.528Z,100.00
2023-05-21T06:09:11.226Z,100.00
2023-05-21T06:11:38.665Z,100.00
2023-05-21T06:14:06.222Z,100.00
2023-05-21T06:16:34.330Z,100.00
2023-05-21T06:19:01.587Z,100.00
2023-05-21T06:21:28.796Z,100.00
2023-05-21T06:23:56.028Z,100.00
2023-05-21T06:26:24.033Z,100.00
2023-05-21T06:28:51.368Z,100.00
2023-05-21T06:31:19.646Z,100.00
2023-05-21T06:33:49.556Z,100.00
2023-05-21T06:36:17.891Z,100.00
2023-05-21T06:38:45.698Z,100.00
2023-05-21T06:41:12.818Z,100.00
2023-05-21T06:43:52.592Z,100.00
2023-05-21T06:46:58.247Z,100.00
2023-05-21T06:49:25.325Z,100.00
2023-05-21T06:51:54.182Z,99.43
2023-05-21T06:54:21.742Z,99.10
2023-05-21T06:56:50.738Z,91.28
2023-05-21T06:59:17.699Z,94.97
2023-05-21T07:01:45.026Z,85.01
2023-05-21T07:04:13.407Z,83.97
2023-05-21T07:06:41.801Z,78.91
2023-05-21T07:09:08.969Z,77.13
2023-05-21T07:11:36.507Z,84.20
2023-05-21T07:14:06.637Z,80.95
2023-05-21T07:16:34.531Z,80.09
2023-05-21T07:19:02.382Z,74.69
2023-05-21T07:21:29.696Z,76.96
2023-05-21T07:23:56.959Z,74.98
2023-05-21T07:26:24.065Z,72.10
2023-05-21T07:28:51.255Z,73.97
2023-05-21T07:31:18.464Z,83.18
2023-05-21T07:33:47.894Z,74.01
2023-05-21T07:36:16.690Z,73.05
2023-05-21T07:38:44.651Z,75.17
2023-05-21T07:41:12.837Z,77.57
2023-05-21T07:43:40.183Z,84.32
2023-05-21T07:46:07.852Z,79.92
2023-05-21T07:48:35.664Z,72.86
2023-05-21T07:51:04.194Z,71.13
2023-05-21T07:53:32.591Z,71.04
2023-05-21T07:56:01.779Z,70.59
2023-05-21T07:58:29.444Z,67.87
2023-05-21T08:00:57.432Z,66.12
2023-05-21T08:03:26.507Z,63.98
2023-05-21T08:05:54.059Z,64.38
2023-05-21T08:08:23.513Z,62.30
2023-05-21T08:10:51.830Z,58.48
2023-05-21T08:13:19.499Z,55.99
2023-05-21T08:15:49.062Z,54.55
2023-05-21T08:18:18.092Z,54.38
2023-05-21T08:20:46.159Z,54.28
2023-05-21T08:23:13.196Z,54.99
2023-05-21T08:25:46.710Z,54.14
2023-05-21T08:28:14.573Z,54.22
2023-05-21T08:30:42.777Z,55.34
2023-05-21T08:33:09.778Z,56.05
2023-05-21T08:35:37.432Z,56.11
2023-05-21T08:38:25.190Z,57.08
2023-05-21T09:39:50.050Z,54.13
2023-05-21T09:42:18.836Z,54.29
2023-05-21T09:44:45.797Z,54.80
2023-05-21T09:47:13.041Z,54.68
2023-05-21T09:49:39.980Z,54.60
2023-05-21T09:52:07.334Z,54.54
2023-05-21T09:54:34.796Z,54.85
2023-05-21T09:57:04.840Z,55.00
2023-05-21T09:59:41.697Z,55.65
2023-05-21T10:02:20.334Z,56.12
2023-05-21T10:05:54.316Z,54.67
2023-05-21T10:08:22.955Z,53.75
2023-05-21T10:10:50.262Z,53.32
2023-05-21T10:13:19.476Z,52.44
2023-05-21T10:15:50.216Z,52.33
2023-05-21T10:18:18.560Z,53.10
2023-05-21T10:20:46.133Z,52.72
2023-05-21T10:23:13.207Z,52.83
2023-05-21T10:25:40.214Z,52.22
2023-05-21T10:28:07.774Z,51.50
2023-05-21T10:30:35.033Z,52.49
2023-05-21T10:33:02.460Z,52.38
2023-05-21T10:35:29.648Z,52.62
2023-05-21T10:37:57.600Z,53.58
2023-05-21T10:40:24.747Z,54.02
2023-05-21T10:42:58.350Z,54.10
2023-05-21T10:45:54.098Z,53.57
2023-05-21T10:48:24.317Z,53.20
2023-05-21T10:51:13.290Z,52.26
2023-05-21T10:54:01.894Z,52.20
2023-05-21T10:56:51.271Z,51.71
2023-05-21T10:59:30.614Z,51.89
2023-05-21T11:01:57.855Z,52.12
2023-05-21T11:04:28.506Z,52.60
2023-05-21T11:06:56.597Z,52.77
2023-05-21T11:09:23.708Z,52.76
2023-05-21T11:11:52.499Z,52.85
2023-05-21T11:14:32.819Z,52.81
2023-05-21T11:17:00.564Z,52.08
2023-05-21T11:19:37.813Z,51.43
2023-05-21T11:22:07.586Z,51.54
2023-05-21T11:24:39.065Z,52.27
2023-05-21T11:27:07.237Z,52.26
2023-05-21T11:29:42.169Z,51.72
2023-05-21T11:32:09.724Z,51.72
2023-05-21T11:34:37.896Z,51.21
2023-05-21T11:37:17.924Z,50.25
2023-05-21T11:39:45.766Z,50.89
2023-05-21T11:42:13.087Z,49.20
2023-05-21T11:44:46.882Z,48.66
2023-05-21T11:47:16.286Z,47.96
2023-05-21T11:49:43.286Z,48.17
2023-05-21T11:52:11.094Z,47.99
2023-05-21T11:54:48.754Z,47.12
2023-05-21T11:57:17.476Z,46.64
2023-05-21T11:59:53.677Z,46.97
2023-05-21T12:02:21.760Z,47.46
2023-05-21T12:04:50.184Z,47.16
2023-05-21T12:07:19.367Z,47.57
2023-05-21T12:09:47.737Z,48.17
2023-05-21T12:12:16.304Z,48.21
2023-05-21T12:14:48.086Z,48.64
2023-05-21T12:17:22.233Z,48.58
2023-05-21T12:19:51.084Z,47.07
2023-05-21T12:22:18.119Z,46.86
2023-05-21T12:24:45.911Z,46.56
2023-05-21T12:27:13.738Z,45.78
2023-05-21T12:29:42.711Z,44.83
2023-05-21T12:32:12.694Z,45.64
2023-05-21T12:34:47.302Z,44.89
2023-05-21T12:37:28.069Z,42.41
2023-05-21T12:39:56.206Z,43.46
2023-05-21T12:42:31.086Z,44.14
2023-05-21T12:44:58.483Z,44.05
2023-05-21T12:47:29.129Z,43.90
2023-05-21T12:50:00.571Z,43.17
2023-05-21T12:52:27.859Z,42.94
2023-05-21T12:54:58.077Z,42.98
2023-05-21T12:57:25.945Z,43.70
2023-05-21T12:59:57.804Z,43.05
2023-05-21T13:02:26.453Z,43.13
2023-05-21T13:05:00.398Z,42.89
2023-05-21T13:07:29.899Z,43.14
2023-05-21T13:09:57.256Z,43.39
2023-05-21T13:12:26.270Z,43.76
2023-05-21T13:14:55.135Z,44.36
2023-05-21T13:17:22.215Z,45.00
2023-05-21T13:20:09.134Z,45.68
2023-05-21T13:22:39.226Z,46.78
2023-05-21T13:25:07.249Z,46.61
2023-05-21T13:27:34.642Z,47.31
2023-05-21T13:30:02.315Z,47.70
2023-05-21T13:32:29.492Z,48.33
2023-05-21T13:34:56.699Z,48.53
2023-05-21T13:37:23.673Z,48.46
2023-05-21T13:39:50.892Z,48.35
2023-05-21T13:42:18.047Z,48.86
2023-05-21T13:44:45.201Z,48.65
2023-05-21T13:47:12.343Z,48.86
2023-05-21T13:49:39.632Z,48.79
2023-05-21T13:52:07.664Z,48.61
2023-05-21T13:54:34.713Z,49.33
2023-05-21T13:57:01.859Z,49.95
2023-05-21T13:59:30.760Z,50.32
2023-05-21T14:01:59.753Z,50.08
2023-05-21T14:04:27.004Z,50.69
2023-05-21T14:06:54.660Z,50.99
2023-05-21T14:09:23.647Z,52.24
2023-05-21T14:11:51.208Z,53.53
2023-05-21T14:14:19.278Z,54.05
2023-05-21T14:16:47.429Z,54.90
2023-05-21T14:19:14.941Z,55.36
2023-05-21T14:21:42.412Z,56.74
2023-05-21T14:24:10.030Z,57.99
2023-05-21T14:26:43.721Z,58.64
2023-05-21T14:29:10.773Z,59.92
2023-05-21T14:31:38.149Z,60.05
2023-05-21T14:34:07.123Z,62.42
2023-05-21T14:36:34.575Z,63.43
2023-05-21T14:39:01.723Z,63.81
2023-05-21T14:41:29.648Z,62.99
2023-05-21T14:43:56.738Z,64.93
2023-05-21T14:46:23.693Z,67.30
2023-05-21T14:48:50.808Z,74.01
2023-05-21T14:51:19.338Z,76.77
2023-05-21T14:53:46.236Z,82.32
2023-05-21T14:56:13.296Z,83.89
2023-05-21T14:58:40.341Z,87.30
2023-05-21T15:01:08.648Z,89.28
2023-05-21T15:03:36.378Z,84.44
2023-05-21T15:06:03.768Z,84.47
2023-05-21T15:08:31.198Z,85.14
2023-05-21T15:10:58.546Z,84.34
2023-05-21T15:13:27.430Z,77.02
2023-05-21T15:15:55.335Z,74.57
2023-05-21T15:18:25.061Z,74.05
2023-05-21T15:20:53.119Z,72.95
2023-05-21T15:23:20.231Z,70.16
2023-05-21T15:25:47.692Z,69.35
2023-05-21T15:28:14.872Z,71.40
2023-05-21T15:30:41.982Z,73.26
2023-05-21T15:33:09.136Z,74.96
2023-05-21T15:35:36.870Z,78.43
2023-05-21T15:38:04.660Z,86.74
2023-05-21T15:40:32.226Z,98.18
2023-05-21T15:42:59.275Z,100.00
2023-05-21T15:45:26.422Z,100.00
2023-05-21T15:47:53.446Z,100.00
2023-05-21T15:50:20.718Z,100.00
2023-05-21T15:52:47.610Z,99.22
2023-05-21T15:55:14.704Z,99.90
2023-05-21T15:57:41.757Z,100.00
2023-05-21T16:00:09.966Z,100.00
2023-05-21T16:02:37.139Z,100.00
2023-05-21T16:05:04.939Z,100.00
2023-05-21T16:07:31.845Z,100.00
2023-05-21T16:09:58.852Z,100.00
2023-05-21T16:12:26.382Z,100.00
2023-05-21T16:14:53.544Z,100.00
2023-05-21T16:17:20.601Z,100.00
2023-05-21T16:19:47.967Z,100.00
2023-05-21T16:22:15.093Z,100.00
2023-05-21T16:24:42.134Z,100.00
2023-05-21T16:27:09.179Z,100.00
2023-05-21T16:29:38.092Z,100.00
2023-05-21T16:32:07.207Z,100.00
2023-05-21T16:34:34.719Z,100.00
2023-05-21T16:37:01.977Z,100.00
2023-05-21T16:39:29.124Z,100.00
2023-05-21T16:41:59.979Z,100.00
2023-05-21T16:44:27.714Z,100.00
2023-05-21T16:46:54.868Z,100.00
2023-05-21T16:49:22.233Z,100.00
2023-05-21T16:51:49.884Z,100.00
2023-05-21T16:54:17.029Z,100.00
2023-05-21T16:56:44.079Z,100.00
2023-05-21T16:59:11.380Z,100.00
2023-05-21T17:01:39.106Z,100.00
2023-05-21T17:04:06.356Z,100.00
2023-05-21T17:06:34.315Z,100.00
2023-05-21T17:09:01.966Z,100.00
2023-05-21T17:11:30.151Z,100.00
2023-05-21T17:13:57.224Z,100.00
2023-05-21T17:16:25.277Z,100.00
2023-05-21T17:18:53.180Z,100.00
2023-05-21T17:21:20.437Z,100.00
2023-05-21T17:23:47.559Z,100.00
2023-05-21T17:26:15.406Z,100.00
2023-05-21T17:28:43.283Z,100.00
2023-05-21T17:31:11.195Z,100.00
2023-05-21T17:33:39.151Z,100.00
2023-05-21T17:36:07.403Z,100.00
2023-05-21T17:38:34.427Z,100.00
2023-05-21T17:41:02.016Z,100.00
2023-05-21T17:43:29.123Z,100.00
2023-05-21T17:45:56.276Z,100.00
2023-05-21T17:48:23.426Z,100.00
2023-05-21T17:50:51.290Z,100.00
2023-05-21T17:53:18.606Z,100.00
2023-05-21T17:55:45.654Z,100.00
2023-05-21T17:58:12.843Z,100.00
2023-05-21T18:00:39.910Z,100.00
2023-05-21T18:03:07.426Z,100.00
2023-05-21T18:05:34.851Z,100.00
2023-05-21T18:08:03.072Z,100.00
2023-05-21T18:10:30.122Z,100.00
2023-05-21T18:12:57.268Z,100.00
2023-05-21T18:15:24.422Z,100.00
2023-05-21T18:17:51.519Z,100.00
2023-05-21T18:20:18.814Z,100.00
2023-05-21T18:22:45.740Z,100.00
2023-05-21T18:25:12.916Z,100.00
2023-05-21T18:27:40.056Z,100.00
2023-05-21T18:30:08.389Z,100.00
2023-05-21T18:32:39.074Z,100.00
2023-05-21T18:35:11.627Z,100.00
2023-05-21T18:37:42.375Z,100.00
2023-05-21T18:40:10.155Z,100.00
2023-05-21T18:42:37.293Z,100.00
2023-05-21T18:45:08.700Z,100.00
2023-05-21T18:47:36.399Z,100.00
2023-05-21T18:50:04.047Z,100.00
2023-05-21T18:52:31.238Z,100.00
2023-05-21T18:54:58.564Z,100.00
2023-05-21T18:57:25.613Z,100.00
2023-05-21T18:59:52.760Z,100.00
2023-05-21T19:02:20.306Z,100.00
2023-05-21T19:04:47.481Z,100.00
2023-05-21T19:07:16.867Z,100.00
2023-05-21T19:09:43.821Z,100.00
2023-05-21T19:12:10.969Z,100.00
2023-05-21T19:14:38.627Z,100.00
2023-05-21T19:17:06.744Z,100.00
2023-05-21T19:19:34.026Z,100.00
2023-05-21T19:22:01.300Z,100.00
2023-05-21T19:24:28.347Z,100.00
2023-05-21T19:26:55.598Z,100.00
2023-05-21T19:29:23.263Z,100.00
2023-05-21T19:31:50.306Z,100.00
2023-05-21T19:34:17.265Z,100.00
2023-05-21T19:36:52.759Z,100.00
2023-05-21T19:39:20.622Z,100.00
2023-05-21T19:41:48.256Z,100.00
2023-05-21T19:44:15.472Z,100.00
2023-05-21T19:46:42.525Z,100.00
2023-05-21T19:49:11.310Z,100.00
2023-05-21T19:51:38.866Z,100.00
2023-05-21T19:54:06.010Z,100.00
2023-05-21T19:56:33.073Z,100.00
2023-05-21T19:59:00.140Z,100.00
2023-05-21T20:01:29.319Z,100.00
2023-05-21T20:03:56.621Z,100.00
2023-05-21T20:06:24.116Z,100.00
2023-05-21T20:08:52.091Z,100.00
2023-05-21T20:11:19.538Z,100.00
2023-05-21T20:13:50.377Z,100.00
2023-05-21T20:16:20.407Z,100.00
2023-05-21T20:18:47.781Z,100.00
2023-05-21T20:21:17.552Z,100.00
2023-05-21T20:23:45.318Z,100.00
2023-05-21T20:26:14.207Z,100.00
2023-05-21T20:28:42.375Z,100.00
2023-05-21T20:31:09.306Z,100.00
2023-05-21T20:33:41.316Z,100.00
2023-05-21T20:36:08.536Z,100.00
2023-05-21T20:38:37.353Z,100.00
2023-05-21T20:41:05.190Z,100.00
2023-05-21T20:43:33.070Z,100.00
2023-05-21T20:46:01.167Z,100.00
2023-05-21T20:48:29.594Z,100.00
2023-05-21T20:51:01.062Z,100.00
2023-05-21T20:53:28.203Z,100.00
2023-05-21T20:55:55.660Z,100.00
2023-05-21T20:58:24.249Z,100.00
2023-05-21T21:00:51.423Z,100.00
2023-05-21T21:03:19.087Z,100.00
2023-05-21T21:05:46.229Z,100.00
2023-05-21T21:08:13.188Z,100.00
2023-05-21T21:10:42.679Z,100.00
2023-05-21T21:13:09.826Z,100.00
2023-05-21T21:15:36.950Z,100.00
2023-05-21T21:18:04.263Z,100.00
2023-05-21T21:20:31.231Z,100.00
2023-05-21T21:22:58.297Z,100.00
2023-05-21T21:25:25.456Z,100.00
2023-05-21T21:27:52.586Z,100.00
2023-05-21T21:30:19.640Z,100.00
2023-05-21T21:32:47.783Z,100.00
2023-05-21T21:35:14.892Z,100.00
2023-05-21T21:37:42.635Z,100.00
2023-05-21T21:40:10.283Z,100.00
2023-05-21T21:42:37.331Z,100.00
2023-05-21T21:45:05.318Z,100.00
2023-05-21T21:47:32.495Z,100.00
2023-05-21T21:49:59.597Z,100.00
2023-05-21T21:52:27.666Z,100.00
2023-05-21T21:54:57.592Z,100.00
2023-05-21T21:57:27.702Z,100.00
2023-05-21T21:59:54.760Z,100.00
2023-05-21T22:02:22.794Z,100.00
2023-05-21T22:04:49.814Z,100.00
2023-05-21T22:07:18.091Z,100.00
2023-05-21T22:09:45.716Z,100.00
2023-05-21T22:12:12.997Z,100.00
2023-05-21T22:14:39.890Z,100.00
2023-05-21T22:17:08.655Z,100.00
2023-05-21T22:19:36.162Z,100.00
2023-05-21T22:24:12.741Z,100.00
2023-05-21T22:26:45.080Z,100.00
2023-05-21T22:29:12.245Z,100.00
2023-05-21T22:31:39.193Z,100.00
2023-05-21T22:34:06.596Z,100.00
2023-05-21T22:36:34.817Z,100.00
2023-05-21T22:39:01.874Z,100.00
2023-05-21T22:41:28.830Z,100.00
2023-05-21T22:43:55.954Z,100.00
2023-05-21T22:46:23.023Z,100.00
2023-05-21T22:48:50.050Z,100.00
2023-05-21T22:51:17.480Z,100.00
2023-05-21T22:53:44.378Z,100.00
2023-05-21T22:56:11.639Z,100.00
2023-05-21T22:58:38.581Z,100.00
2023-05-21T23:01:06.253Z,100.00
2023-05-21T23:03:33.365Z,100.00
2023-05-21T23:06:00.716Z,100.00
2023-05-21T23:08:27.758Z,100.00
2023-05-21T23:10:54.704Z,100.00
2023-05-21T23:13:21.850Z,100.00
2023-05-21T23:15:49.101Z,100.00
2023-05-21T23:18:16.864Z,100.00
2023-05-21T23:20:44.063Z,100.00
2023-05-21T23:23:11.370Z,100.00
2023-05-21T23:25:38.452Z,100.00
2023-05-21T23:28:05.971Z,100.00
2023-05-21T23:30:32.911Z,100.00
2023-05-21T23:33:00.148Z,100.00
2023-05-21T23:35:27.421Z,100.00
2023-05-21T23:37:54.570Z,100.00
2023-05-21T23:40:21.821Z,100.00
2023-05-21T23:42:48.729Z,100.00
2023-05-21T23:45:17.384Z,100.00
2023-05-21T23:47:44.637Z,100.00
2023-05-21T23:50:11.751Z,100.00
2023-05-21T23:52:38.894Z,100.00
2023-05-21T23:55:06.922Z,100.00
2023-05-21T23:57:33.865Z,100.00
